Time;durP1;ratioP1;P1;durP2;ratioP2;P2;SDS_P1;SDS_P2;PMS_P1;PMS_P2;Temp;Humidity;BMP_temperature;BMP_pressure;BME280_temperature;BME280_humidity;BME280_pressure;Samples;Min_cycle;Max_cycle;Signal;HPM_P1;HPM_P2
2023/05/07 00:00:15;;;;;;;;;2.75;2.75;;;;;20.86;45.26;100844.13;4967278;28;45478;-73
2023/05/07 00:02:40;;;;;;;;;5.50;2.00;;;;;20.86;45.42;100846.78;4975808;28;45395;-73
2023/05/07 00:05:07;;;;;;;;;4.00;3.25;;;;;20.88;45.08;100847.53;4967117;28;45227;-73
2023/05/07 00:07:32;;;;;;;;;4.25;2.50;;;;;20.85;45.07;100847.72;4951478;28;45299;-73
2023/05/07 00:09:57;;;;;;;;;3.25;3.00;;;;;20.89;45.01;100849.22;4965792;28;45228;-72
2023/05/07 00:12:23;;;;;;;;;5.75;2.25;;;;;20.88;45.46;100846.69;4972853;28;61015;-73
2023/05/07 00:14:48;;;;;;;;;3.75;3.00;;;;;20.86;45.27;100836.97;4954621;28;45658;-73
2023/05/07 00:17:13;;;;;;;;;4.25;3.00;;;;;20.88;44.97;100831.56;4957139;28;69610;-73
2023/05/07 00:19:39;;;;;;;;;4.00;2.00;;;;;20.85;45.27;100829.09;4953864;28;45505;-73
2023/05/07 00:22:04;;;;;;;;;4.00;2.00;;;;;20.88;45.22;100838.69;4962333;28;45302;-73
2023/05/07 00:24:32;;;;;;;;;5.50;2.50;;;;;20.85;45.05;100839.75;4962535;28;45339;-73
2023/05/07 00:26:57;;;;;;;;;6.75;3.25;;;;;20.86;45.60;100850.28;4957483;28;45438;-73
2023/05/07 00:29:23;;;;;;;;;3.25;3.25;;;;;20.85;44.90;100840.59;5005409;27;45494;-73
2023/05/07 00:31:51;;;;;;;;;2.00;2.00;;;;;20.88;45.32;100846.69;4975371;28;47191;-73
2023/05/07 00:34:17;;;;;;;;;2.75;2.75;;;;;20.85;45.45;100845.06;4969524;28;45388;-72
2023/05/07 00:36:42;;;;;;;;;4.25;2.50;;;;;20.85;45.47;100835.28;4961304;28;45289;-72
2023/05/07 00:39:08;;;;;;;;;3.00;3.00;;;;;20.86;45.12;100844.13;4971811;28;51144;-72
2023/05/07 00:41:33;;;;;;;;;4.00;2.00;;;;;20.84;45.42;100846.00;4971861;28;45650;-72
2023/05/07 00:43:58;;;;;;;;;4.50;2.25;;;;;20.86;45.33;100855.59;4974303;28;45608;-72
2023/05/07 00:46:24;;;;;;;;;3.50;3.50;;;;;20.85;45.02;100845.06;4967023;28;45317;-72
2023/05/07 00:48:50;;;;;;;;;2.00;2.00;;;;;20.88;45.11;100847.53;4972002;28;67164;-72
2023/05/07 00:51:17;;;;;;;;;3.25;2.00;;;;;20.86;45.13;100846.78;4972137;28;46123;-72
2023/05/07 00:53:42;;;;;;;;;2.00;2.00;;;;;20.86;45.32;100839.66;4961458;28;45447;-72
2023/05/07 00:56:08;;;;;;;;;3.00;2.00;;;;;20.88;45.54;100838.69;4970380;28;54000;-72
2023/05/07 00:58:33;;;;;;;;;3.00;1.00;;;;;20.87;45.04;100832.50;4957168;28;71989;-72
2023/05/07 01:00:59;;;;;;;;;5.00;3.00;;;;;20.86;45.46;100831.66;4963866;28;53303;-72
2023/05/07 01:03:25;;;;;;;;;4.75;3.00;;;;;20.83;45.27;100823.88;4962598;28;45490;-72
2023/05/07 01:05:52;;;;;;;;;2.00;2.00;;;;;20.85;45.29;100827.28;4972679;28;45193;-72
2023/05/07 01:08:18;;;;;;;;;2.00;2.00;;;;;20.85;45.66;100829.94;4972623;28;70447;-72
2023/05/07 01:10:44;;;;;;;;;2.50;2.50;;;;;20.87;45.60;100840.50;4952104;28;47420;-72
2023/05/07 01:13:10;;;;;;;;;3.25;3.00;;;;;20.84;45.59;100828.25;4970762;28;45423;-72
2023/05/07 01:15:36;;;;;;;;;4.25;2.00;;;;;20.87;45.43;100832.50;4969761;28;67266;-72
2023/05/07 01:18:02;;;;;;;;;3.00;3.00;;;;;20.86;45.53;100830.81;4969004;28;45533;-72
2023/05/07 01:20:28;;;;;;;;;2.75;2.00;;;;;20.86;45.75;100820.19;4963833;28;54248;-72
2023/05/07 01:22:53;;;;;;;;;2.00;2.00;;;;;20.88;45.71;100823.59;4965508;28;45561;-72
2023/05/07 01:25:19;;;;;;;;;2.25;2.25;;;;;20.86;45.21;100813.03;4966499;28;45498;-72
2023/05/07 01:27:44;;;;;;;;;1.50;1.50;;;;;20.84;45.21;100814.97;4960476;28;45662;-72
2023/05/07 01:30:10;;;;;;;;;3.00;3.00;;;;;20.86;45.51;100817.53;4965333;28;45373;-72
2023/05/07 01:32:51;;;;;;;;;2.00;1.50;;;;;20.85;45.46;100813.16;4959246;28;45460;-72
2023/05/07 01:35:22;;;;;;;;;1.75;1.75;;;;;20.85;45.66;100819.31;4972724;28;45449;-72
2023/05/07 01:37:48;;;;;;;;;1.00;1.00;;;;;20.86;45.53;100814.88;4951962;28;45660;-72
2023/05/07 01:40:14;;;;;;;;;2.00;2.00;;;;;20.85;45.35;100819.31;4969303;28;70939;-72
2023/05/07 01:42:41;;;;;;;;;2.75;2.25;;;;;20.84;45.50;100814.97;4963512;28;45505;-72
2023/05/07 01:45:06;;;;;;;;;2.25;2.00;;;;;20.85;45.22;100813.16;4966298;28;45516;-72
2023/05/07 01:47:32;;;;;;;;;3.50;2.00;;;;;20.85;45.63;100805.16;4980523;28;45400;-72
2023/05/07 01:49:58;;;;;;;;;3.75;2.00;;;;;20.84;45.50;100811.44;4949661;28;46813;-72
2023/05/07 01:52:24;;;;;;;;;1.00;1.00;;;;;20.85;45.45;100821.97;4958768;28;65739;-72
2023/05/07 01:54:49;;;;;;;;;2.25;2.00;;;;;20.85;45.77;100821.13;4964819;28;45813;-72
2023/05/07 01:57:15;;;;;;;;;1.00;1.00;;;;;20.84;45.59;100814.09;4958725;28;45479;-72
2023/05/07 01:59:40;;;;;;;;;1.00;1.00;;;;;20.86;45.60;100820.19;4967179;28;45496;-72
2023/05/07 02:02:05;;;;;;;;;1.50;1.00;;;;;20.85;45.42;100816.66;4968438;28;67048;-72
2023/05/07 02:04:31;;;;;;;;;2.00;2.00;;;;;20.85;45.34;100814.00;4968461;28;57893;-72
2023/05/07 02:06:56;;;;;;;;;4.50;1.00;;;;;20.85;45.88;100819.31;4969030;28;45552;-72
2023/05/07 02:09:22;;;;;;;;;2.00;2.00;;;;;20.86;45.77;100821.03;4947335;28;53055;-73
2023/05/07 02:11:48;;;;;;;;;1.75;1.00;;;;;20.86;45.79;100814.88;4967565;28;45263;-72
2023/05/07 02:14:13;;;;;;;;;2.00;2.00;;;;;20.86;45.81;100822.84;4966230;28;60816;-72
2023/05/07 02:16:38;;;;;;;;;1.00;1.00;;;;;20.86;45.46;100820.19;4966242;28;45937;-72
2023/05/07 02:19:05;;;;;;;;;1.00;0.75;;;;;20.86;45.86;100828.16;4965709;28;68634;-72
2023/05/07 02:21:30;;;;;;;;;2.00;2.00;;;;;20.86;45.86;100825.50;4947974;28;45945;-72
2023/05/07 02:23:55;;;;;;;;;2.00;2.00;;;;;20.83;45.47;100823.88;4964799;28;45604;-72
2023/05/07 02:26:21;;;;;;;;;1.00;1.00;;;;;20.87;46.06;100832.50;4965617;28;45359;-72
2023/05/07 02:28:47;;;;;;;;;1.25;1.00;;;;;20.84;45.97;100825.59;4964955;28;45481;-72
2023/05/07 02:31:12;;;;;;;;;1.75;1.75;;;;;20.85;45.82;100819.31;4967351;28;45387;-72
2023/05/07 02:33:37;;;;;;;;;1.00;1.00;;;;;20.86;45.88;100818.38;4960262;28;66780;-72
2023/05/07 02:36:10;;;;;;;;;1.75;1.00;;;;;20.86;45.66;100822.84;4962471;28;45366;-72
2023/05/07 02:38:35;;;;;;;;;1.00;1.00;;;;;20.85;45.60;100824.63;4969497;28;45496;-72
2023/05/07 02:41:01;;;;;;;;;3.00;2.00;;;;;20.86;45.91;100828.16;4962064;28;45375;-72
2023/05/07 02:43:26;;;;;;;;;2.00;1.00;;;;;20.86;45.62;100831.66;4963748;28;61343;-72
2023/05/07 02:46:05;;;;;;;;;1.00;1.00;;;;;20.86;45.82;100836.13;4959482;28;45855;-72
2023/05/07 02:48:30;;;;;;;;;4.50;2.50;;;;;20.85;45.79;100826.44;4970850;28;45663;-72
2023/05/07 02:50:56;;;;;;;;;3.75;2.00;;;;;20.85;45.61;100839.75;4959897;28;45368;-72
2023/05/07 02:53:21;;;;;;;;;2.25;1.00;;;;;20.82;46.01;100830.19;4960670;28;67566;-72
2023/05/07 02:55:46;;;;;;;;;1.50;1.00;;;;;20.87;45.76;100835.16;4964143;28;45351;-72
2023/05/07 02:58:12;;;;;;;;;1.00;1.00;;;;;20.85;45.91;100834.44;4952536;28;74055;-72
2023/05/07 03:00:37;;;;;;;;;2.25;1.00;;;;;20.87;45.95;100835.16;4968920;28;64795;-72
2023/05/07 03:03:02;;;;;;;;;2.00;2.00;;;;;20.86;45.89;100836.13;4971343;28;66479;-72
2023/05/07 03:05:28;;;;;;;;;1.00;1.00;;;;;20.83;45.51;100831.88;4963580;28;45929;-72
2023/05/07 03:07:53;;;;;;;;;2.50;2.00;;;;;20.86;45.86;100833.47;4970221;28;74005;-72
2023/05/07 03:10:18;;;;;;;;;1.75;1.75;;;;;20.86;45.98;100834.31;4968984;28;45497;-72
2023/05/07 03:12:44;;;;;;;;;2.00;2.00;;;;;20.86;45.87;100831.66;4959103;28;45310;-72
2023/05/07 03:15:11;;;;;;;;;0.25;0.25;;;;;20.85;45.74;100835.28;4964620;28;62234;-72
2023/05/07 03:17:36;;;;;;;;;2.00;2.00;;;;;20.88;46.06;100836.88;4972553;28;45614;-72
2023/05/07 03:20:02;;;;;;;;;2.00;2.00;;;;;20.85;45.65;100837.94;4953680;28;45479;-72
2023/05/07 03:22:27;;;;;;;;;1.75;1.25;;;;;20.85;45.99;100835.28;4947438;28;45893;-72
2023/05/07 03:24:52;;;;;;;;;3.00;3.00;;;;;20.86;45.52;100831.66;4961242;28;45430;-72
2023/05/07 03:27:18;;;;;;;;;3.00;2.00;;;;;20.85;45.66;100824.63;4961661;28;67534;-72
2023/05/07 03:29:43;;;;;;;;;4.00;2.25;;;;;20.88;46.06;100830.72;4967272;28;69324;-72
2023/05/07 03:32:08;;;;;;;;;5.00;3.00;;;;;20.88;46.14;100828.06;4971160;28;45279;-72
2023/05/07 03:34:34;;;;;;;;;4.00;2.50;;;;;20.86;45.69;100822.84;4964536;28;64549;-72
2023/05/07 03:36:59;;;;;;;;;4.75;3.00;;;;;20.85;46.04;100816.66;4976383;28;46383;-72
2023/05/07 03:39:25;;;;;;;;;4.00;3.75;;;;;20.86;45.77;100823.69;4971043;28;45320;-72
2023/05/07 03:41:50;;;;;;;;;2.00;1.00;;;;;20.86;45.73;100820.19;4960380;28;52618;-72
2023/05/07 03:44:15;;;;;;;;;4.00;3.00;;;;;20.84;45.89;100828.25;4972088;28;65914;-72
2023/05/07 03:46:41;;;;;;;;;2.50;2.50;;;;;20.88;46.07;100833.38;4962574;28;46147;-72
2023/05/07 03:49:06;;;;;;;;;2.25;2.00;;;;;20.87;46.03;100829.84;4962310;28;64045;-72
2023/05/07 03:51:31;;;;;;;;;3.75;2.50;;;;;20.86;45.75;100836.13;4971924;28;45257;-72
2023/05/07 03:53:57;;;;;;;;;3.00;2.25;;;;;20.86;45.83;100839.66;4964441;28;45537;-72
2023/05/07 03:56:22;;;;;;;;;6.00;3.00;;;;;20.85;46.28;100834.44;4969347;28;72392;-72
2023/05/07 03:58:48;;;;;;;;;3.75;1.25;;;;;20.88;45.80;100846.69;4957661;28;45348;-72
2023/05/07 04:01:13;;;;;;;;;4.00;2.25;;;;;20.83;46.25;100839.84;4949362;28;61380;-72
2023/05/07 04:03:39;;;;;;;;;1.25;1.25;;;;;20.87;46.15;100861.78;4962832;28;45328;-72
2023/05/07 04:06:04;;;;;;;;;2.50;2.50;;;;;20.85;45.86;100853.88;4972861;28;46084;-72
2023/05/07 04:08:30;;;;;;;;;2.00;2.00;;;;;20.85;46.01;100847.72;4975914;28;45414;-72
2023/05/07 04:10:56;;;;;;;;;2.25;2.25;;;;;20.87;45.89;100845.81;4960995;28;45269;-72
2023/05/07 04:13:21;;;;;;;;;3.00;1.50;;;;;20.86;46.17;100838.81;4975834;28;45329;-72
2023/05/07 04:15:48;;;;;;;;;4.50;1.00;;;;;20.84;45.69;100833.59;4961210;28;63999;-72
2023/05/07 04:18:14;;;;;;;;;2.00;2.00;;;;;20.86;46.02;100841.47;4965971;28;45318;-72
2023/05/07 04:20:39;;;;;;;;;3.75;2.00;;;;;20.85;45.82;100839.75;4974451;28;46003;-72
2023/05/07 04:23:05;;;;;;;;;1.75;1.75;;;;;20.85;46.13;100840.59;4948318;28;45324;-72
2023/05/07 04:25:30;;;;;;;;;2.75;2.00;;;;;20.85;46.05;100851.22;4971341;28;45698;-72
2023/05/07 04:27:55;;;;;;;;;3.25;1.50;;;;;20.87;46.21;100845.81;4959098;28;69541;-72
2023/05/07 04:30:21;;;;;;;;;2.00;2.00;;;;;20.86;46.22;100858.25;4966091;28;60584;-72
2023/05/07 04:32:47;;;;;;;;;3.00;1.25;;;;;20.85;45.74;100859.22;4973382;28;73960;-72
2023/05/07 04:35:13;;;;;;;;;4.00;2.00;;;;;20.85;45.83;100861.88;4968194;28;45907;-72
2023/05/07 04:37:38;;;;;;;;;1.00;0.00;;;;;20.84;46.18;100860.19;4948622;28;45308;-72
2023/05/07 04:40:04;;;;;;;;;3.50;2.00;;;;;20.86;46.16;100865.41;4966545;28;59841;-72
2023/05/07 04:42:29;;;;;;;;;1.75;1.00;;;;;20.85;45.90;100863.69;4966041;28;46097;-72
2023/05/07 04:44:55;;;;;;;;;1.00;1.00;;;;;20.86;45.82;100868.06;4965636;28;45806;-72
2023/05/07 04:47:20;;;;;;;;;1.50;1.50;;;;;20.84;45.96;100864.63;4967939;28;61700;-72
2023/05/07 04:49:46;;;;;;;;;1.25;1.00;;;;;20.87;46.29;100885.72;4971150;28;45339;-72
2023/05/07 04:52:11;;;;;;;;;2.75;1.50;;;;;20.87;46.29;100880.38;4962248;28;64479;-72
2023/05/07 04:54:37;;;;;;;;;1.75;0.50;;;;;20.86;45.83;100884.03;4963747;28;74409;-72
2023/05/07 04:57:04;;;;;;;;;1.25;1.00;;;;;20.86;46.18;100878.72;4972335;28;46339;-72
2023/05/07 04:59:29;;;;;;;;;1.00;1.00;;;;;20.85;46.26;100880.50;4971928;28;45330;-72
2023/05/07 05:01:55;;;;;;;;;1.00;1.00;;;;;20.86;45.77;100886.69;4960265;28;45209;-72
2023/05/07 05:04:20;;;;;;;;;1.00;1.00;;;;;20.85;46.10;100891.13;4962254;28;45255;-72
2023/05/07 05:06:46;;;;;;;;;3.00;1.50;;;;;20.86;45.91;100892.00;4971659;28;67000;-72
2023/05/07 05:09:11;;;;;;;;;2.50;2.00;;;;;20.85;45.59;100888.47;4970025;28;45261;-72
2023/05/07 05:11:36;;;;;;;;;2.50;1.00;;;;;20.85;46.21;100892.94;4961958;28;65632;-72
2023/05/07 05:14:02;;;;;;;;;0.50;0.50;;;;;20.84;46.15;100885.91;4965304;28;76866;-72
2023/05/07 05:16:27;;;;;;;;;1.00;1.00;;;;;20.85;45.98;100888.47;4970872;28;45288;-72
2023/05/07 05:18:54;;;;;;;;;0.00;0.00;;;;;20.84;45.93;100888.56;4968575;28;61140;-72
2023/05/07 05:21:20;;;;;;;;;2.00;2.00;;;;;20.85;46.30;100890.28;4972241;28;45386;-72
2023/05/07 05:23:45;;;;;;;;;2.75;0.00;;;;;20.84;45.91;100896.56;4951778;28;45684;-72
2023/05/07 05:26:11;;;;;;;;;1.00;1.00;;;;;20.84;45.84;100896.56;4970648;28;45449;-72
2023/05/07 05:28:36;;;;;;;;;1.00;1.00;;;;;20.85;46.03;100903.59;4968646;28;46227;-72
2023/05/07 05:31:02;;;;;;;;;0.50;0.50;;;;;20.85;46.38;100908.91;4949151;28;45425;-72
2023/05/07 05:33:27;;;;;;;;;0.25;0.25;;;;;20.84;45.78;100904.53;4951959;28;74449;-72
2023/05/07 05:35:54;;;;;;;;;1.00;1.00;;;;;20.84;46.37;100908.06;4970178;28;45343;-72
2023/05/07 05:38:20;;;;;;;;;1.00;1.00;;;;;20.84;46.24;100910.72;4975960;28;45564;-72
2023/05/07 05:40:46;;;;;;;;;0.75;0.50;;;;;20.85;46.37;100906.25;4969700;28;45198;-72
2023/05/07 05:43:17;;;;;;;;;1.00;1.00;;;;;20.83;46.31;100903.69;4963954;28;46071;-72
2023/05/07 05:45:42;;;;;;;;;2.00;0.00;;;;;20.85;45.84;100909.75;4968153;28;45454;-72
2023/05/07 05:48:08;;;;;;;;;0.50;0.50;;;;;20.84;45.93;100923.16;4969738;28;64818;-72
2023/05/07 05:50:36;;;;;;;;;1.00;1.00;;;;;20.83;45.96;100919.66;4965068;28;45409;-72
2023/05/07 05:53:05;;;;;;;;;2.50;0.75;;;;;20.83;46.14;100914.31;4961436;28;46210;-72
2023/05/07 05:55:32;;;;;;;;;0.00;0.00;;;;;20.85;45.92;100923.06;4952057;28;45636;-72
2023/05/07 05:57:57;;;;;;;;;1.00;1.00;;;;;20.83;46.10;100913.47;4975291;28;45449;-72
2023/05/07 06:00:23;;;;;;;;;1.25;0.25;;;;;20.84;46.35;100918.72;4966629;28;45417;-72
2023/05/07 06:02:48;;;;;;;;;1.00;1.00;;;;;20.84;46.32;100923.16;4970054;28;47202;-73
2023/05/07 06:05:14;;;;;;;;;1.50;1.00;;;;;20.83;45.79;100922.31;4964654;28;45338;-72
2023/05/07 06:07:40;;;;;;;;;2.50;1.50;;;;;20.84;45.95;100925.81;4975544;28;45318;-72
2023/05/07 06:10:06;;;;;;;;;0.00;0.00;;;;;20.85;46.19;100927.53;4963954;28;45502;-72
2023/05/07 06:12:31;;;;;;;;;0.00;0.00;;;;;20.83;46.14;100926.78;4977148;28;46334;-72
2023/05/07 06:14:57;;;;;;;;;0.75;0.00;;;;;20.85;46.37;100927.53;4965645;28;68582;-72
2023/05/07 06:17:22;;;;;;;;;0.00;0.00;;;;;20.83;46.23;100927.63;4973631;28;45802;-72
2023/05/07 06:19:47;;;;;;;;;0.00;0.00;;;;;20.83;46.26;100932.94;4969828;28;60541;-72
2023/05/07 06:22:12;;;;;;;;;1.00;1.00;;;;;20.83;45.98;100932.94;4958337;28;72440;-72
2023/05/07 06:24:38;;;;;;;;;0.25;0.00;;;;;20.84;46.25;100933.78;4973478;28;68064;-72
2023/05/07 06:27:03;;;;;;;;;1.00;1.00;;;;;20.85;46.34;100932.84;4964406;28;45264;-72
2023/05/07 06:29:31;;;;;;;;;0.00;0.00;;;;;20.85;46.20;100939.00;4956589;28;68917;-72
2023/05/07 06:31:56;;;;;;;;;1.00;1.00;;;;;20.84;46.34;100936.44;4973202;28;47376;-72
2023/05/07 06:34:21;;;;;;;;;2.00;0.00;;;;;20.84;46.19;100936.44;4962010;28;55567;-72
2023/05/07 06:36:47;;;;;;;;;0.00;0.00;;;;;20.84;46.38;100934.66;4970334;28;65286;-72
2023/05/07 06:39:12;;;;;;;;;1.00;0.50;;;;;20.84;45.95;100931.13;4973765;28;45322;-72
2023/05/07 06:41:38;;;;;;;;;0.00;0.00;;;;;20.85;46.31;100931.03;4970112;28;46360;-72
2023/05/07 06:44:04;;;;;;;;;0.00;0.00;;;;;20.84;45.83;100934.66;4971156;28;45514;-72
2023/05/07 06:46:30;;;;;;;;;0.25;0.00;;;;;20.85;46.23;100941.66;4974215;28;45316;-72
2023/05/07 06:48:56;;;;;;;;;0.75;0.75;;;;;20.85;46.24;100940.81;4972150;28;45229;-73
2023/05/07 06:51:22;;;;;;;;;0.00;0.00;;;;;20.85;46.08;100940.81;4964845;28;45402;-72
2023/05/07 06:53:47;;;;;;;;;0.00;0.00;;;;;20.86;46.00;100946.06;4961580;28;45457;-72
2023/05/07 06:56:12;;;;;;;;;0.00;0.00;;;;;20.85;46.05;100941.66;4966212;28;65157;-72
2023/05/07 06:58:38;;;;;;;;;0.00;0.00;;;;;20.87;46.36;100946.91;4970450;28;58154;-72
2023/05/07 07:01:03;;;;;;;;;0.00;0.00;;;;;20.88;45.98;100945.09;4959469;28;66207;-72
2023/05/07 07:03:28;;;;;;;;;1.00;0.25;;;;;20.85;46.34;100948.81;4972844;28;50449;-72
2023/05/07 07:05:54;;;;;;;;;0.00;0.00;;;;;20.86;45.94;100950.53;4969776;28;59402;-72
2023/05/07 07:08:21;;;;;;;;;0.25;0.00;;;;;20.85;46.36;100952.31;4968736;28;45657;-72
2023/05/07 07:10:47;;;;;;;;;0.00;0.00;;;;;20.88;45.99;100947.78;4971241;28;46442;-72
2023/05/07 07:13:12;;;;;;;;;0.00;0.00;;;;;20.89;46.12;100960.09;4957805;28;45366;-72
2023/05/07 07:15:37;;;;;;;;;2.00;0.00;;;;;20.87;45.98;100957.53;4962286;28;45862;-72
2023/05/07 07:18:03;;;;;;;;;2.00;0.50;;;;;20.88;46.36;100966.38;4961725;28;45269;-72
2023/05/07 07:20:28;;;;;;;;;1.25;0.00;;;;;20.87;46.36;100962.84;4963879;28;74394;-72
2023/05/07 07:22:53;;;;;;;;;0.00;0.00;;;;;20.88;46.31;100961.06;4967720;28;45425;-72
2023/05/07 07:25:19;;;;;;;;;0.00;0.00;;;;;20.90;45.88;100962.66;4961175;28;45270;-73
2023/05/07 07:27:44;;;;;;;;;0.25;0.25;;;;;20.91;46.03;100968.81;4962342;28;48055;-73
2023/05/07 07:30:10;;;;;;;;;0.00;0.00;;;;;20.90;46.02;100970.63;4964924;28;46486;-72
2023/05/07 07:32:35;;;;;;;;;2.50;0.00;;;;;20.91;46.18;100976.81;4962602;28;45228;-72
2023/05/07 07:35:01;;;;;;;;;0.00;0.00;;;;;20.94;46.41;100982.78;4951662;28;45237;-73
2023/05/07 07:37:26;;;;;;;;;0.00;0.00;;;;;20.95;46.37;100976.50;4968201;28;45287;-72
2023/05/07 07:39:52;;;;;;;;;0.50;0.00;;;;;20.96;46.39;100980.84;4955125;28;48110;-73
2023/05/07 07:42:18;;;;;;;;;1.00;0.00;;;;;20.97;46.39;100985.22;4968762;28;50378;-73
2023/05/07 07:44:43;;;;;;;;;0.00;0.00;;;;;20.99;46.20;100983.31;4971570;28;45513;-73
2023/05/07 07:47:10;;;;;;;;;0.00;0.00;;;;;21.00;46.68;100982.38;4973984;28;45657;-73
2023/05/07 07:49:35;;;;;;;;;0.00;0.00;;;;;21.01;46.34;100984.06;4963823;28;46211;-72
2023/05/07 07:52:00;;;;;;;;;0.00;0.00;;;;;20.99;46.54;100980.66;4965650;28;53826;-72
2023/05/07 07:54:26;;;;;;;;;0.25;0.25;;;;;21.04;46.64;100983.88;4964494;28;45275;-73
2023/05/07 07:56:51;;;;;;;;;0.75;0.00;;;;;21.07;46.67;100985.50;4967288;28;73090;-72
2023/05/07 07:59:18;;;;;;;;;0.50;0.00;;;;;21.07;46.17;100985.50;4966391;28;46261;-72
2023/05/07 08:01:44;;;;;;;;;0.00;0.00;;;;;21.10;46.14;100992.41;4974755;28;45582;-72
2023/05/07 08:04:10;;;;;;;;;1.00;0.00;;;;;21.10;46.52;100995.91;4964108;28;45386;-72
2023/05/07 08:06:35;;;;;;;;;0.00;0.00;;;;;21.13;46.33;100994.88;4974674;28;45330;-72
2023/05/07 08:09:00;;;;;;;;;0.00;0.00;;;;;21.14;46.78;100992.09;4962161;28;47204;-72
2023/05/07 08:11:26;;;;;;;;;1.00;0.00;;;;;21.16;46.63;100990.19;4972852;28;53559;-72
2023/05/07 08:13:51;;;;;;;;;0.00;0.00;;;;;21.18;46.37;100995.41;4973661;28;45393;-72
2023/05/07 08:16:17;;;;;;;;;0.00;0.00;;;;;21.20;46.54;100999.66;4959687;28;45565;-72
2023/05/07 08:18:42;;;;;;;;;0.00;0.00;;;;;21.20;46.37;100997.00;4962442;28;65719;-72
2023/05/07 08:21:08;;;;;;;;;0.00;0.00;;;;;21.21;46.34;101001.38;4978413;28;46250;-72
2023/05/07 08:23:34;;;;;;;;;0.25;0.00;;;;;21.26;46.33;101008.19;4959247;28;69463;-72
2023/05/07 08:26:00;;;;;;;;;0.00;0.00;;;;;21.27;46.38;101010.75;4964432;28;45464;-72
2023/05/07 08:28:25;;;;;;;;;0.50;0.00;;;;;21.30;46.38;101022.97;4965199;28;47150;-72
2023/05/07 08:30:50;;;;;;;;;0.00;0.00;;;;;21.30;46.56;101015.88;4968983;28;45438;-72
2023/05/07 08:33:16;;;;;;;;;0.00;0.00;;;;;21.30;46.49;101007.88;4977580;28;45538;-72
2023/05/07 08:35:41;;;;;;;;;0.25;0.25;;;;;21.34;46.03;101016.53;4967861;28;45432;-72
2023/05/07 08:38:06;;;;;;;;;0.00;0.00;;;;;21.36;46.49;101019.91;4966540;28;46366;-72
2023/05/07 08:40:37;;;;;;;;;0.00;0.00;;;;;21.37;46.24;101022.47;4961588;28;45280;-72
2023/05/07 08:43:02;;;;;;;;;1.00;0.00;;;;;21.37;46.39;101018.94;4954931;28;45419;-72
2023/05/07 08:45:29;;;;;;;;;0.50;0.50;;;;;21.42;46.04;101027.47;4968328;28;61252;-72
2023/05/07 08:47:58;;;;;;;;;0.00;0.00;;;;;21.41;46.46;101023.13;4970997;28;47491;-72
2023/05/07 08:50:24;;;;;;;;;0.00;0.00;;;;;21.42;46.62;101023.03;4954489;28;45388;-72
2023/05/07 08:52:49;;;;;;;;;1.00;0.00;;;;;21.46;46.07;101036.13;4942954;28;64644;-72
2023/05/07 08:55:15;;;;;;;;;0.00;0.00;;;;;21.47;46.45;101037.88;4967260;28;45530;-73
2023/05/07 08:57:40;;;;;;;;;1.00;0.00;;;;;21.46;45.88;101031.69;4966111;28;72815;-73
2023/05/07 09:00:07;;;;;;;;;0.00;0.00;;;;;21.51;46.26;101036.69;4963217;28;69570;-72
2023/05/07 09:02:33;;;;;;;;;0.00;0.00;;;;;21.51;46.17;101040.19;4977472;28;45457;-73
2023/05/07 09:04:58;;;;;;;;;0.00;0.00;;;;;21.53;46.44;101035.63;4966585;28;46058;-72
2023/05/07 09:07:23;;;;;;;;;0.00;0.00;;;;;21.52;46.61;101035.75;4964222;28;46271;-72
2023/05/07 09:09:49;;;;;;;;;0.00;0.00;;;;;21.54;46.38;101036.47;4966437;28;45789;-72
2023/05/07 09:12:14;;;;;;;;;1.00;0.00;;;;;21.56;46.54;101040.72;4968947;28;45492;-72
2023/05/07 09:14:40;;;;;;;;;0.00;0.00;;;;;21.58;46.45;101038.84;4959732;28;45444;-72
2023/05/07 09:17:05;;;;;;;;;0.25;0.00;;;;;21.58;46.10;101044.16;4975830;28;46405;-72
2023/05/07 09:19:31;;;;;;;;;0.00;0.00;;;;;21.59;45.92;101043.19;4969667;28;69081;-72
2023/05/07 09:22:04;;;;;;;;;0.00;0.00;;;;;21.60;46.45;101034.25;4970226;28;50224;-73
2023/05/07 09:24:33;;;;;;;;;0.00;0.00;;;;;21.61;46.11;101046.59;4975914;28;45627;-72
2023/05/07 09:27:00;;;;;;;;;0.00;0.00;;;;;21.60;46.18;101038.72;4973360;28;45534;-73
2023/05/07 09:29:25;;;;;;;;;2.00;0.00;;;;;21.60;46.15;101036.91;4964165;28;45304;-72
2023/05/07 09:31:50;;;;;;;;;0.00;0.00;;;;;21.60;46.27;101034.25;5012928;28;45226;-72
2023/05/07 09:34:16;;;;;;;;;2.75;0.00;;;;;21.61;45.90;101025.28;4950353;28;46131;-72
2023/05/07 09:36:41;;;;;;;;;0.50;0.50;;;;;21.62;46.02;101034.16;4977792;28;65653;-72
2023/05/07 09:39:07;;;;;;;;;0.00;0.00;;;;;21.63;46.37;101033.19;4973532;28;45263;-72
2023/05/07 09:41:32;;;;;;;;;0.00;0.00;;;;;21.62;45.99;101034.16;4966562;28;45312;-72
2023/05/07 09:44:00;;;;;;;;;0.00;0.00;;;;;21.64;45.76;101040.22;4969610;28;63803;-72
2023/05/07 09:46:28;;;;;;;;;0.00;0.00;;;;;21.62;46.38;101039.47;4950381;28;47901;-72
2023/05/07 09:48:57;;;;;;;;;0.00;0.00;;;;;21.63;46.45;101041.16;4960971;28;45375;-72
2023/05/07 09:51:26;;;;;;;;;0.00;0.00;;;;;21.64;46.35;101050.00;4967822;28;45289;-72
2023/05/07 09:53:53;;;;;;;;;0.00;0.00;;;;;21.65;46.47;101041.06;4962137;28;45289;-72
2023/05/07 09:56:18;;;;;;;;;1.00;0.00;;;;;21.63;46.00;101048.31;4962728;28;45468;-73
2023/05/07 09:58:45;;;;;;;;;0.00;0.00;;;;;21.65;46.38;101049.06;4960380;28;69549;-72
2023/05/07 10:01:11;;;;;;;;;1.50;1.50;;;;;21.63;46.25;101049.16;4962923;28;45888;-73
2023/05/07 10:03:40;;;;;;;;;4.00;1.75;;;;;21.65;45.98;101052.56;4959529;28;45303;-72
2023/05/07 10:06:07;;;;;;;;;2.00;1.00;;;;;21.65;45.73;101041.06;4951647;28;48013;-73
2023/05/07 10:08:32;;;;;;;;;0.75;0.00;;;;;21.65;46.28;101044.56;4974338;28;45514;-72
2023/05/07 10:10:58;;;;;;;;;0.50;0.50;;;;;21.67;46.17;101047.13;4970320;28;47483;-73
2023/05/07 10:13:24;;;;;;;;;0.25;0.25;;;;;21.67;45.81;101042.66;4974292;28;45311;-73
2023/05/07 10:15:50;;;;;;;;;0.00;0.00;;;;;21.68;46.14;101048.84;4973431;28;71726;-73
2023/05/07 10:18:16;;;;;;;;;0.75;0.50;;;;;21.68;46.20;101047.03;4958967;28;45749;-73
2023/05/07 10:20:42;;;;;;;;;2.00;1.00;;;;;21.70;46.09;101044.28;4968772;28;45458;-72
2023/05/07 10:23:12;;;;;;;;;1.00;1.00;;;;;21.70;46.03;101046.94;4950167;28;47007;-72
2023/05/07 10:25:38;;;;;;;;;0.00;0.00;;;;;21.70;46.03;101045.13;4977910;28;45744;-73
2023/05/07 10:28:08;;;;;;;;;0.25;0.25;;;;;21.70;45.74;101047.78;4963298;28;70509;-73
2023/05/07 10:30:55;;;;;;;;;2.00;1.50;;;;;21.74;46.39;101054.63;4964925;28;45241;-73
2023/05/07 10:33:25;;;;;;;;;2.25;1.00;;;;;21.75;45.75;101058.13;4970181;28;45340;-73
2023/05/07 10:35:51;;;;;;;;;2.00;2.00;;;;;21.75;46.01;101050.13;4978539;28;46597;-73
2023/05/07 10:38:16;;;;;;;;;1.00;1.00;;;;;21.74;45.76;101054.63;4969393;28;45275;-73
2023/05/07 10:40:42;;;;;;;;;2.00;1.00;;;;;21.74;46.25;101057.28;4945659;28;45455;-73
2023/05/07 10:43:08;;;;;;;;;0.25;0.25;;;;;21.70;46.10;101047.78;4966256;28;45251;-72
2023/05/07 10:45:34;;;;;;;;;0.50;0.50;;;;;21.66;46.28;101043.63;4962803;28;46210;-73
2023/05/07 10:48:08;;;;;;;;;0.25;0.25;;;;;21.77;46.22;101062.38;4967025;28;45853;-73
2023/05/07 10:50:35;;;;;;;;;1.25;0.00;;;;;21.63;45.84;101046.50;4962520;28;45241;-72
2023/05/07 10:53:18;;;;;;;;;1.00;1.00;;;;;21.78;46.23;101071.25;4973413;28;45360;-73
2023/05/07 10:55:44;;;;;;;;;2.00;0.25;;;;;21.78;45.74;101058.78;4964152;28;46346;-73
2023/05/07 10:58:22;;;;;;;;;2.00;1.00;;;;;21.78;45.76;101074.75;4952025;28;45409;-72
2023/05/07 11:00:48;;;;;;;;;1.00;1.00;;;;;21.79;45.90;101062.28;4968082;28;45460;-72
2023/05/07 11:03:14;;;;;;;;;0.25;0.25;;;;;21.75;46.10;101058.97;4958882;28;45449;-73
2023/05/07 11:05:40;;;;;;;;;2.00;1.00;;;;;21.76;46.24;101059.81;4950475;28;47136;-72
2023/05/07 11:08:06;;;;;;;;;0.50;0.50;;;;;21.78;46.25;101058.78;4976003;28;45399;-72
2023/05/07 11:10:54;;;;;;;;;1.75;0.25;;;;;21.80;45.94;101064.84;4962678;28;45605;-72
2023/05/07 11:13:48;;;;;;;;;2.00;1.00;;;;;21.81;46.15;101063.03;4957990;28;45356;-72
2023/05/07 11:16:33;;;;;;;;;5.00;2.50;;;;;21.80;46.21;101064.84;4965383;28;47562;-73
2023/05/07 11:18:58;;;;;;;;;3.50;3.25;;;;;21.78;46.00;101060.59;4957293;28;45510;-73